sensor_id;sensor_type;location;lat;lon;timestamp;temperature;humidity
39045;DHT22;52192;52.002;5.956;2023-04-26T00:02:23;6.50;69.60
39045;DHT22;52192;52.002;5.956;2023-04-26T00:04:52;6.50;69.70
39045;DHT22;52192;52.002;5.956;2023-04-26T00:07:23;6.50;69.80
39045;DHT22;52192;52.002;5.956;2023-04-26T00:09:50;6.50;69.90
39045;DHT22;52192;52.002;5.956;2023-04-26T00:12:17;6.40;69.90
39045;DHT22;52192;52.002;5.956;2023-04-26T00:14:43;6.40;69.90
39045;DHT22;52192;52.002;5.956;2023-04-26T00:17:09;6.40;70.00
39045;DHT22;52192;52.002;5.956;2023-04-26T00:19:34;6.40;70.10
39045;DHT22;52192;52.002;5.956;2023-04-26T00:22:01;6.30;70.00
39045;DHT22;52192;52.002;5.956;2023-04-26T00:24:27;6.30;70.10
39045;DHT22;52192;52.002;5.956;2023-04-26T00:26:56;6.30;70.10
39045;DHT22;52192;52.002;5.956;2023-04-26T00:29:22;6.30;70.20
39045;DHT22;52192;52.002;5.956;2023-04-26T00:31:47;6.30;70.30
39045;DHT22;52192;52.002;5.956;2023-04-26T00:34:13;6.30;70.40
39045;DHT22;52192;52.002;5.956;2023-04-26T00:36:39;6.20;70.20
39045;DHT22;52192;52.002;5.956;2023-04-26T00:39:04;6.20;70.30
39045;DHT22;52192;52.002;5.956;2023-04-26T00:41:30;6.20;70.50
39045;DHT22;52192;52.002;5.956;2023-04-26T00:43:56;6.20;70.60
39045;DHT22;52192;52.002;5.956;2023-04-26T00:46:21;6.20;71.20
39045;DHT22;52192;52.002;5.956;2023-04-26T00:48:47;6.30;70.60
39045;DHT22;52192;52.002;5.956;2023-04-26T00:51:13;6.20;70.50
39045;DHT22;52192;52.002;5.956;2023-04-26T00:53:40;6.20;70.50
39045;DHT22;52192;52.002;5.956;2023-04-26T00:56:08;6.20;70.70
39045;DHT22;52192;52.002;5.956;2023-04-26T00:58:35;6.20;70.70
39045;DHT22;52192;52.002;5.956;2023-04-26T01:01:01;6.20;70.80
39045;DHT22;52192;52.002;5.956;2023-04-26T01:03:27;6.10;70.80
39045;DHT22;52192;52.002;5.956;2023-04-26T01:05:53;6.10;70.80
39045;DHT22;52192;52.002;5.956;2023-04-26T01:08:19;6.10;70.90
39045;DHT22;52192;52.002;5.956;2023-04-26T01:10:47;6.10;70.90
39045;DHT22;52192;52.002;5.956;2023-04-26T01:13:13;6.10;70.90
39045;DHT22;52192;52.002;5.956;2023-04-26T01:15:48;6.10;70.90
39045;DHT22;52192;52.002;5.956;2023-04-26T01:18:14;6.00;70.90
39045;DHT22;52192;52.002;5.956;2023-04-26T01:20:40;6.00;71.00
39045;DHT22;52192;52.002;5.956;2023-04-26T01:23:07;6.00;71.00
39045;DHT22;52192;52.002;5.956;2023-04-26T01:25:33;5.90;71.00
39045;DHT22;52192;52.002;5.956;2023-04-26T01:27:59;5.90;71.10
39045;DHT22;52192;52.002;5.956;2023-04-26T01:30:25;5.90;71.10
39045;DHT22;52192;52.002;5.956;2023-04-26T01:32:51;5.80;71.10
39045;DHT22;52192;52.002;5.956;2023-04-26T01:35:17;5.80;71.20
39045;DHT22;52192;52.002;5.956;2023-04-26T01:37:42;5.80;71.20
39045;DHT22;52192;52.002;5.956;2023-04-26T01:40:08;5.80;71.30
39045;DHT22;52192;52.002;5.956;2023-04-26T01:42:34;5.70;71.30
39045;DHT22;52192;52.002;5.956;2023-04-26T01:45:00;5.70;71.50
39045;DHT22;52192;52.002;5.956;2023-04-26T01:47:26;5.70;71.70
39045;DHT22;52192;52.002;5.956;2023-04-26T01:49:52;5.70;71.80
39045;DHT22;52192;52.002;5.956;2023-04-26T01:52:17;5.60;71.70
39045;DHT22;52192;52.002;5.956;2023-04-26T01:54:43;5.60;71.80
39045;DHT22;52192;52.002;5.956;2023-04-26T01:57:09;5.50;71.70
39045;DHT22;52192;52.002;5.956;2023-04-26T01:59:34;5.60;71.80
39045;DHT22;52192;52.002;5.956;2023-04-26T02:02:00;5.50;71.70
39045;DHT22;52192;52.002;5.956;2023-04-26T02:04:26;5.50;71.70
39045;DHT22;52192;52.002;5.956;2023-04-26T02:06:52;5.50;71.70
39045;DHT22;52192;52.002;5.956;2023-04-26T02:09:18;5.50;71.70
39045;DHT22;52192;52.002;5.956;2023-04-26T02:11:44;5.50;71.70
39045;DHT22;52192;52.002;5.956;2023-04-26T02:14:09;5.40;71.70
39045;DHT22;52192;52.002;5.956;2023-04-26T02:16:35;5.40;71.90
39045;DHT22;52192;52.002;5.956;2023-04-26T02:19:02;5.40;71.80
39045;DHT22;52192;52.002;5.956;2023-04-26T02:21:29;5.40;71.80
39045;DHT22;52192;52.002;5.956;2023-04-26T02:23:55;5.40;71.90
39045;DHT22;52192;52.002;5.956;2023-04-26T02:26:22;5.40;71.90
39045;DHT22;52192;52.002;5.956;2023-04-26T02:28:47;5.40;72.00
39045;DHT22;52192;52.002;5.956;2023-04-26T02:31:13;5.30;72.00
39045;DHT22;52192;52.002;5.956;2023-04-26T02:33:38;5.40;72.10
39045;DHT22;52192;52.002;5.956;2023-04-26T02:36:05;5.40;72.00
39045;DHT22;52192;52.002;5.956;2023-04-26T02:38:34;5.30;72.00
39045;DHT22;52192;52.002;5.956;2023-04-26T02:41:02;5.30;72.20
39045;DHT22;52192;52.002;5.956;2023-04-26T02:43:28;5.30;73.00
39045;DHT22;52192;52.002;5.956;2023-04-26T02:45:54;5.30;72.60
39045;DHT22;52192;52.002;5.956;2023-04-26T02:48:19;5.30;72.70
39045;DHT22;52192;52.002;5.956;2023-04-26T02:50:46;5.30;72.90
39045;DHT22;52192;52.002;5.956;2023-04-26T02:53:12;5.20;73.00
39045;DHT22;52192;52.002;5.956;2023-04-26T02:55:38;5.20;73.00
39045;DHT22;52192;52.002;5.956;2023-04-26T02:58:04;5.20;73.00
39045;DHT22;52192;52.002;5.956;2023-04-26T03:00:30;5.20;73.10
39045;DHT22;52192;52.002;5.956;2023-04-26T03:02:58;5.20;73.20
39045;DHT22;52192;52.002;5.956;2023-04-26T03:05:24;5.10;73.20
39045;DHT22;52192;52.002;5.956;2023-04-26T03:07:50;5.10;73.20
39045;DHT22;52192;52.002;5.956;2023-04-26T03:10:15;5.10;73.30
39045;DHT22;52192;52.002;5.956;2023-04-26T03:12:41;5.10;73.30
39045;DHT22;52192;52.002;5.956;2023-04-26T03:15:07;5.10;73.30
39045;DHT22;52192;52.002;5.956;2023-04-26T03:17:33;5.00;73.40
39045;DHT22;52192;52.002;5.956;2023-04-26T03:19:58;5.00;73.40
39045;DHT22;52192;52.002;5.956;2023-04-26T03:22:24;5.00;73.50
39045;DHT22;52192;52.002;5.956;2023-04-26T03:24:50;5.00;73.40
39045;DHT22;52192;52.002;5.956;2023-04-26T03:27:15;4.90;73.40
39045;DHT22;52192;52.002;5.956;2023-04-26T03:29:41;4.90;73.40
39045;DHT22;52192;52.002;5.956;2023-04-26T03:32:07;4.90;73.50
39045;DHT22;52192;52.002;5.956;2023-04-26T03:34:32;4.90;73.50
39045;DHT22;52192;52.002;5.956;2023-04-26T03:36:58;4.80;73.60
39045;DHT22;52192;52.002;5.956;2023-04-26T03:39:24;4.80;73.60
39045;DHT22;52192;52.002;5.956;2023-04-26T03:41:49;4.80;73.50
39045;DHT22;52192;52.002;5.956;2023-04-26T03:44:15;4.80;73.50
39045;DHT22;52192;52.002;5.956;2023-04-26T03:46:42;4.80;73.50
39045;DHT22;52192;52.002;5.956;2023-04-26T03:49:08;4.80;73.50
39045;DHT22;52192;52.002;5.956;2023-04-26T03:51:33;4.80;73.60
39045;DHT22;52192;52.002;5.956;2023-04-26T03:53:59;4.80;73.60
39045;DHT22;52192;52.002;5.956;2023-04-26T03:56:25;4.70;73.60
39045;DHT22;52192;52.002;5.956;2023-04-26T03:58:51;4.70;73.70
39045;DHT22;52192;52.002;5.956;2023-04-26T04:01:16;4.70;73.70
39045;DHT22;52192;52.002;5.956;2023-04-26T04:03:42;4.70;73.80
39045;DHT22;52192;52.002;5.956;2023-04-26T04:06:08;4.70;73.70
39045;DHT22;52192;52.002;5.956;2023-04-26T04:08:33;4.70;73.80
39045;DHT22;52192;52.002;5.956;2023-04-26T04:10:59;4.70;73.80
39045;DHT22;52192;52.002;5.956;2023-04-26T04:13:25;4.70;73.90
39045;DHT22;52192;52.002;5.956;2023-04-26T04:15:51;4.70;74.00
39045;DHT22;52192;52.002;5.956;2023-04-26T04:18:17;4.60;74.00
39045;DHT22;52192;52.002;5.956;2023-04-26T04:20:43;4.60;74.10
39045;DHT22;52192;52.002;5.956;2023-04-26T04:23:09;4.60;74.20
39045;DHT22;52192;52.002;5.956;2023-04-26T04:25:35;4.60;74.20
39045;DHT22;52192;52.002;5.956;2023-04-26T04:28:01;4.60;74.30
39045;DHT22;52192;52.002;5.956;2023-04-26T04:30:28;4.60;74.40
39045;DHT22;52192;52.002;5.956;2023-04-26T04:32:54;4.60;74.40
39045;DHT22;52192;52.002;5.956;2023-04-26T04:35:22;4.60;74.40
39045;DHT22;52192;52.002;5.956;2023-04-26T04:37:52;4.70;74.60
39045;DHT22;52192;52.002;5.956;2023-04-26T04:40:18;4.70;74.60
39045;DHT22;52192;52.002;5.956;2023-04-26T04:42:44;4.70;74.60
39045;DHT22;52192;52.002;5.956;2023-04-26T04:45:10;4.70;74.50
39045;DHT22;52192;52.002;5.956;2023-04-26T04:47:36;4.70;74.60
39045;DHT22;52192;52.002;5.956;2023-04-26T04:50:04;4.70;74.50
39045;DHT22;52192;52.002;5.956;2023-04-26T04:52:30;4.70;74.60
39045;DHT22;52192;52.002;5.956;2023-04-26T04:54:57;4.70;74.60
39045;DHT22;52192;52.002;5.956;2023-04-26T04:57:23;4.80;74.60
39045;DHT22;52192;52.002;5.956;2023-04-26T04:59:49;4.80;74.60
39045;DHT22;52192;52.002;5.956;2023-04-26T05:02:15;4.80;74.50
39045;DHT22;52192;52.002;5.956;2023-04-26T05:04:41;4.90;74.60
39045;DHT22;52192;52.002;5.956;2023-04-26T05:07:07;4.90;74.60
39045;DHT22;52192;52.002;5.956;2023-04-26T05:09:34;5.00;74.60
39045;DHT22;52192;52.002;5.956;2023-04-26T05:12:00;5.00;74.60
39045;DHT22;52192;52.002;5.956;2023-04-26T05:14:26;5.10;74.70
39045;DHT22;52192;52.002;5.956;2023-04-26T05:16:51;5.10;74.70
39045;DHT22;52192;52.002;5.956;2023-04-26T05:19:17;5.20;74.80
39045;DHT22;52192;52.002;5.956;2023-04-26T05:21:43;5.20;74.80
39045;DHT22;52192;52.002;5.956;2023-04-26T05:24:08;5.30;74.80
39045;DHT22;52192;52.002;5.956;2023-04-26T05:26:34;5.40;74.80
39045;DHT22;52192;52.002;5.956;2023-04-26T05:29:00;5.50;74.70
39045;DHT22;52192;52.002;5.956;2023-04-26T05:31:26;5.60;74.70
39045;DHT22;52192;52.002;5.956;2023-04-26T05:33:51;5.70;74.60
39045;DHT22;52192;52.002;5.956;2023-04-26T05:36:17;5.80;74.50
39045;DHT22;52192;52.002;5.956;2023-04-26T05:38:43;5.90;74.50
39045;DHT22;52192;52.002;5.956;2023-04-26T05:41:09;5.90;74.40
39045;DHT22;52192;52.002;5.956;2023-04-26T05:43:35;6.10;74.30
39045;DHT22;52192;52.002;5.956;2023-04-26T05:46:01;6.20;74.20
39045;DHT22;52192;52.002;5.956;2023-04-26T05:48:27;6.30;74.10
39045;DHT22;52192;52.002;5.956;2023-04-26T05:50:54;6.40;74.10
39045;DHT22;52192;52.002;5.956;2023-04-26T05:53:20;6.40;74.00
39045;DHT22;52192;52.002;5.956;2023-04-26T05:55:46;6.50;73.90
39045;DHT22;52192;52.002;5.956;2023-04-26T05:58:12;6.60;73.90
39045;DHT22;52192;52.002;5.956;2023-04-26T06:00:38;6.70;73.80
39045;DHT22;52192;52.002;5.956;2023-04-26T06:03:04;6.80;73.80
39045;DHT22;52192;52.002;5.956;2023-04-26T06:05:32;6.90;73.80
39045;DHT22;52192;52.002;5.956;2023-04-26T06:07:58;6.90;73.60
39045;DHT22;52192;52.002;5.956;2023-04-26T06:10:24;7.00;73.60
39045;DHT22;52192;52.002;5.956;2023-04-26T06:12:50;7.10;73.40
39045;DHT22;52192;52.002;5.956;2023-04-26T06:15:16;7.30;73.20
39045;DHT22;52192;52.002;5.956;2023-04-26T06:17:41;7.40;73.10
39045;DHT22;52192;52.002;5.956;2023-04-26T06:20:08;7.50;72.90
39045;DHT22;52192;52.002;5.956;2023-04-26T06:22:37;7.60;72.60
39045;DHT22;52192;52.002;5.956;2023-04-26T06:25:04;7.70;72.10
39045;DHT22;52192;52.002;5.956;2023-04-26T06:27:31;7.90;72.00
39045;DHT22;52192;52.002;5.956;2023-04-26T06:29:56;8.00;71.60
39045;DHT22;52192;52.002;5.956;2023-04-26T06:32:22;8.10;71.20
39045;DHT22;52192;52.002;5.956;2023-04-26T06:34:48;8.20;70.80
39045;DHT22;52192;52.002;5.956;2023-04-26T06:37:13;8.30;70.40
39045;DHT22;52192;52.002;5.956;2023-04-26T06:39:39;8.40;69.90
39045;DHT22;52192;52.002;5.956;2023-04-26T06:42:05;8.40;69.70
39045;DHT22;52192;52.002;5.956;2023-04-26T06:44:31;8.50;69.40
39045;DHT22;52192;52.002;5.956;2023-04-26T06:46:56;8.60;69.20
39045;DHT22;52192;52.002;5.956;2023-04-26T06:49:22;8.60;68.70
39045;DHT22;52192;52.002;5.956;2023-04-26T06:51:48;8.70;68.40
39045;DHT22;52192;52.002;5.956;2023-04-26T06:54:14;8.70;68.20
39045;DHT22;52192;52.002;5.956;2023-04-26T06:56:40;8.70;68.20
39045;DHT22;52192;52.002;5.956;2023-04-26T06:59:06;8.80;68.30
39045;DHT22;52192;52.002;5.956;2023-04-26T07:01:34;8.90;67.90
39045;DHT22;52192;52.002;5.956;2023-04-26T07:04:03;8.90;67.80
39045;DHT22;52192;52.002;5.956;2023-04-26T07:06:29;8.90;67.60
39045;DHT22;52192;52.002;5.956;2023-04-26T07:08:57;9.00;67.10
39045;DHT22;52192;52.002;5.956;2023-04-26T07:11:23;8.90;66.70
39045;DHT22;52192;52.002;5.956;2023-04-26T07:13:49;8.90;66.20
39045;DHT22;52192;52.002;5.956;2023-04-26T07:16:15;8.90;66.20
39045;DHT22;52192;52.002;5.956;2023-04-26T07:18:41;9.00;66.40
39045;DHT22;52192;52.002;5.956;2023-04-26T07:21:07;9.10;66.30
39045;DHT22;52192;52.002;5.956;2023-04-26T07:23:33;9.30;66.10
39045;DHT22;52192;52.002;5.956;2023-04-26T07:25:58;9.40;65.50
39045;DHT22;52192;52.002;5.956;2023-04-26T07:28:26;9.40;63.90
39045;DHT22;52192;52.002;5.956;2023-04-26T07:30:52;9.40;64.00
39045;DHT22;52192;52.002;5.956;2023-04-26T07:33:18;9.30;64.10
39045;DHT22;52192;52.002;5.956;2023-04-26T07:35:43;9.40;64.30
39045;DHT22;52192;52.002;5.956;2023-04-26T07:38:09;9.40;64.50
39045;DHT22;52192;52.002;5.956;2023-04-26T07:40:35;9.60;64.60
39045;DHT22;52192;52.002;5.956;2023-04-26T07:43:01;9.70;64.50
39045;DHT22;52192;52.002;5.956;2023-04-26T07:45:27;9.80;64.20
39045;DHT22;52192;52.002;5.956;2023-04-26T07:47:52;9.80;63.80
39045;DHT22;52192;52.002;5.956;2023-04-26T07:50:19;9.90;64.00
39045;DHT22;52192;52.002;5.956;2023-04-26T07:52:45;9.90;63.60
39045;DHT22;52192;52.002;5.956;2023-04-26T07:55:10;10.00;63.50
39045;DHT22;52192;52.002;5.956;2023-04-26T07:57:36;10.00;63.50
39045;DHT22;52192;52.002;5.956;2023-04-26T08:00:06;10.10;63.20
39045;DHT22;52192;52.002;5.956;2023-04-26T08:02:34;10.20;63.30
39045;DHT22;52192;52.002;5.956;2023-04-26T08:05:00;10.20;62.90
39045;DHT22;52192;52.002;5.956;2023-04-26T08:07:26;10.30;62.30
39045;DHT22;52192;52.002;5.956;2023-04-26T08:09:52;10.40;62.50
39045;DHT22;52192;52.002;5.956;2023-04-26T08:12:18;10.50;61.90
39045;DHT22;52192;52.002;5.956;2023-04-26T08:14:43;10.60;62.20
39045;DHT22;52192;52.002;5.956;2023-04-26T08:17:09;10.70;62.10
39045;DHT22;52192;52.002;5.956;2023-04-26T08:19:35;10.80;61.40
39045;DHT22;52192;52.002;5.956;2023-04-26T08:22:01;10.70;59.00
39045;DHT22;52192;52.002;5.956;2023-04-26T08:24:27;10.50;59.20
39045;DHT22;52192;52.002;5.956;2023-04-26T08:26:54;10.40;59.30
39045;DHT22;52192;52.002;5.956;2023-04-26T08:29:19;10.30;59.30
39045;DHT22;52192;52.002;5.956;2023-04-26T08:31:45;10.20;59.30
39045;DHT22;52192;52.002;5.956;2023-04-26T08:34:11;10.20;59.70
39045;DHT22;52192;52.002;5.956;2023-04-26T08:36:41;10.30;59.90
39045;DHT22;52192;52.002;5.956;2023-04-26T08:39:07;10.40;60.00
39045;DHT22;52192;52.002;5.956;2023-04-26T08:41:36;10.50;59.50
39045;DHT22;52192;52.002;5.956;2023-04-26T08:44:04;10.60;59.40
39045;DHT22;52192;52.002;5.956;2023-04-26T08:47:00;10.80;59.10
39045;DHT22;52192;52.002;5.956;2023-04-26T08:51:50;11.00;57.10
39045;DHT22;52192;52.002;5.956;2023-04-26T08:54:18;11.00;57.30
39045;DHT22;52192;52.002;5.956;2023-04-26T08:56:45;10.90;57.40
39045;DHT22;52192;52.002;5.956;2023-04-26T08:59:11;10.90;57.70
39045;DHT22;52192;52.002;5.956;2023-04-26T09:01:42;10.80;57.60
39045;DHT22;52192;52.002;5.956;2023-04-26T09:04:08;10.70;57.50
39045;DHT22;52192;52.002;5.956;2023-04-26T09:06:35;10.60;57.30
39045;DHT22;52192;52.002;5.956;2023-04-26T09:09:02;10.50;56.90
39045;DHT22;52192;52.002;5.956;2023-04-26T09:11:57;10.50;57.10
39045;DHT22;52192;52.002;5.956;2023-04-26T09:14:24;10.50;56.60
39045;DHT22;52192;52.002;5.956;2023-04-26T09:16:51;10.40;56.90
39045;DHT22;52192;52.002;5.956;2023-04-26T09:19:39;10.30;57.30
39045;DHT22;52192;52.002;5.956;2023-04-26T09:22:04;10.30;56.90
39045;DHT22;52192;52.002;5.956;2023-04-26T09:24:50;10.30;57.60
39045;DHT22;52192;52.002;5.956;2023-04-26T09:27:17;10.50;57.80
39045;DHT22;52192;52.002;5.956;2023-04-26T09:30:07;10.50;56.90
39045;DHT22;52192;52.002;5.956;2023-04-26T09:35:31;10.80;57.00
39045;DHT22;52192;52.002;5.956;2023-04-26T09:37:58;11.10;56.10
39045;DHT22;52192;52.002;5.956;2023-04-26T09:40:25;11.20;55.90
39045;DHT22;52192;52.002;5.956;2023-04-26T09:43:10;11.40;56.00
39045;DHT22;52192;52.002;5.956;2023-04-26T09:50:49;11.20;55.10
39045;DHT22;52192;52.002;5.956;2023-04-26T09:53:34;11.10;55.10
39045;DHT22;52192;52.002;5.956;2023-04-26T09:56:13;11.00;55.40
39045;DHT22;52192;52.002;5.956;2023-04-26T10:01:15;10.80;55.60
39045;DHT22;52192;52.002;5.956;2023-04-26T10:03:45;10.70;55.90
39045;DHT22;52192;52.002;5.956;2023-04-26T10:06:14;10.60;56.00
39045;DHT22;52192;52.002;5.956;2023-04-26T10:08:41;10.50;56.30
39045;DHT22;52192;52.002;5.956;2023-04-26T10:11:06;10.50;56.80
39045;DHT22;52192;52.002;5.956;2023-04-26T10:13:34;10.50;56.50
39045;DHT22;52192;52.002;5.956;2023-04-26T10:16:00;10.50;56.60
39045;DHT22;52192;52.002;5.956;2023-04-26T10:18:26;10.50;56.80
39045;DHT22;52192;52.002;5.956;2023-04-26T10:20:56;10.50;56.90
39045;DHT22;52192;52.002;5.956;2023-04-26T10:23:24;10.60;56.70
39045;DHT22;52192;52.002;5.956;2023-04-26T10:25:51;10.70;56.80
39045;DHT22;52192;52.002;5.956;2023-04-26T10:28:17;10.80;56.70
39045;DHT22;52192;52.002;5.956;2023-04-26T10:31:03;10.80;56.60
39045;DHT22;52192;52.002;5.956;2023-04-26T10:33:30;10.90;56.50
39045;DHT22;52192;52.002;5.956;2023-04-26T10:38:28;11.20;56.00
39045;DHT22;52192;52.002;5.956;2023-04-26T10:40:54;11.30;55.30
39045;DHT22;52192;52.002;5.956;2023-04-26T10:43:26;11.30;54.70
39045;DHT22;52192;52.002;5.956;2023-04-26T10:45:52;11.30;54.20
39045;DHT22;52192;52.002;5.956;2023-04-26T10:48:22;11.30;54.40
39045;DHT22;52192;52.002;5.956;2023-04-26T10:53:26;11.50;54.60
39045;DHT22;52192;52.002;5.956;2023-04-26T10:55:52;11.60;54.30
39045;DHT22;52192;52.002;5.956;2023-04-26T10:58:25;11.60;54.30
39045;DHT22;52192;52.002;5.956;2023-04-26T11:01:20;11.50;54.80
39045;DHT22;52192;52.002;5.956;2023-04-26T11:04:08;11.50;54.90
39045;DHT22;52192;52.002;5.956;2023-04-26T11:06:51;11.40;55.10
39045;DHT22;52192;52.002;5.956;2023-04-26T11:11:57;11.40;55.40
39045;DHT22;52192;52.002;5.956;2023-04-26T11:14:24;11.40;55.50
39045;DHT22;52192;52.002;5.956;2023-04-26T11:16:50;11.40;55.30
39045;DHT22;52192;52.002;5.956;2023-04-26T11:19:16;11.40;54.60
39045;DHT22;52192;52.002;5.956;2023-04-26T11:21:42;11.50;54.70
39045;DHT22;52192;52.002;5.956;2023-04-26T11:24:07;11.40;53.60
39045;DHT22;52192;52.002;5.956;2023-04-26T11:26:33;11.40;53.70
39045;DHT22;52192;52.002;5.956;2023-04-26T11:29:00;11.50;53.90
39045;DHT22;52192;52.002;5.956;2023-04-26T11:31:25;11.50;53.40
39045;DHT22;52192;52.002;5.956;2023-04-26T11:33:54;11.50;53.30
39045;DHT22;52192;52.002;5.956;2023-04-26T11:36:25;11.60;53.50
39045;DHT22;52192;52.002;5.956;2023-04-26T11:38:51;11.60;53.80
39045;DHT22;52192;52.002;5.956;2023-04-26T11:41:18;11.60;52.80
39045;DHT22;52192;52.002;5.956;2023-04-26T11:43:47;11.50;53.30
39045;DHT22;52192;52.002;5.956;2023-04-26T11:46:12;11.60;53.50
39045;DHT22;52192;52.002;5.956;2023-04-26T11:48:39;11.60;53.10
39045;DHT22;52192;52.002;5.956;2023-04-26T11:51:07;11.70;53.20
39045;DHT22;52192;52.002;5.956;2023-04-26T11:53:40;11.80;53.30
39045;DHT22;52192;52.002;5.956;2023-04-26T11:56:17;11.90;53.00
39045;DHT22;52192;52.002;5.956;2023-04-26T11:58:47;11.90;52.60
39045;DHT22;52192;52.002;5.956;2023-04-26T12:01:20;12.00;52.20
39045;DHT22;52192;52.002;5.956;2023-04-26T12:03:49;12.20;52.20
39045;DHT22;52192;52.002;5.956;2023-04-26T12:06:15;12.70;51.40
39045;DHT22;52192;52.002;5.956;2023-04-26T12:08:40;13.10;50.10
39045;DHT22;52192;52.002;5.956;2023-04-26T12:11:06;13.50;50.10
39045;DHT22;52192;52.002;5.956;2023-04-26T12:13:32;14.00;49.80
39045;DHT22;52192;52.002;5.956;2023-04-26T12:15:58;14.30;48.70
39045;DHT22;52192;52.002;5.956;2023-04-26T12:18:31;14.60;48.40
39045;DHT22;52192;52.002;5.956;2023-04-26T12:20:58;14.90;47.60
39045;DHT22;52192;52.002;5.956;2023-04-26T12:23:24;15.00;46.90
39045;DHT22;52192;52.002;5.956;2023-04-26T12:25:53;14.90;46.40
39045;DHT22;52192;52.002;5.956;2023-04-26T12:28:19;14.70;46.30
39045;DHT22;52192;52.002;5.956;2023-04-26T12:30:45;14.50;46.60
39045;DHT22;52192;52.002;5.956;2023-04-26T12:33:10;14.30;46.50
39045;DHT22;52192;52.002;5.956;2023-04-26T12:35:36;14.10;47.20
39045;DHT22;52192;52.002;5.956;2023-04-26T12:38:02;14.00;47.70
39045;DHT22;52192;52.002;5.956;2023-04-26T12:40:28;14.00;47.90
39045;DHT22;52192;52.002;5.956;2023-04-26T12:42:54;13.80;47.40
39045;DHT22;52192;52.002;5.956;2023-04-26T12:45:21;13.60;46.70
39045;DHT22;52192;52.002;5.956;2023-04-26T12:47:48;13.40;47.10
39045;DHT22;52192;52.002;5.956;2023-04-26T12:50:14;13.30;47.40
39045;DHT22;52192;52.002;5.956;2023-04-26T12:52:41;13.10;46.90
39045;DHT22;52192;52.002;5.956;2023-04-26T12:55:11;13.00;47.00
39045;DHT22;52192;52.002;5.956;2023-04-26T12:57:38;12.70;46.90
39045;DHT22;52192;52.002;5.956;2023-04-26T13:00:05;12.60;47.80
39045;DHT22;52192;52.002;5.956;2023-04-26T13:02:32;12.60;47.60
39045;DHT22;52192;52.002;5.956;2023-04-26T13:05:01;12.50;47.10
39045;DHT22;52192;52.002;5.956;2023-04-26T13:07:32;12.40;47.40
39045;DHT22;52192;52.002;5.956;2023-04-26T13:09:59;12.40;47.80
39045;DHT22;52192;52.002;5.956;2023-04-26T13:12:26;12.40;47.70
39045;DHT22;52192;52.002;5.956;2023-04-26T13:14:52;12.40;48.10
39045;DHT22;52192;52.002;5.956;2023-04-26T13:17:17;12.30;48.60
39045;DHT22;52192;52.002;5.956;2023-04-26T13:19:43;12.40;49.10
39045;DHT22;52192;52.002;5.956;2023-04-26T13:22:12;12.40;49.30
39045;DHT22;52192;52.002;5.956;2023-04-26T13:24:38;12.40;49.40
39045;DHT22;52192;52.002;5.956;2023-04-26T13:27:04;12.30;49.60
39045;DHT22;52192;52.002;5.956;2023-04-26T13:29:30;12.30;50.00
39045;DHT22;52192;52.002;5.956;2023-04-26T13:31:59;12.30;50.20
39045;DHT22;52192;52.002;5.956;2023-04-26T13:34:27;12.40;49.90
39045;DHT22;52192;52.002;5.956;2023-04-26T13:36:55;12.30;49.90
39045;DHT22;52192;52.002;5.956;2023-04-26T13:39:25;12.30;49.70
39045;DHT22;52192;52.002;5.956;2023-04-26T13:41:53;12.30;49.90
39045;DHT22;52192;52.002;5.956;2023-04-26T13:44:19;12.30;49.90
39045;DHT22;52192;52.002;5.956;2023-04-26T13:46:47;12.30;49.50
39045;DHT22;52192;52.002;5.956;2023-04-26T13:49:13;12.30;49.70
39045;DHT22;52192;52.002;5.956;2023-04-26T13:51:39;12.40;50.00
39045;DHT22;52192;52.002;5.956;2023-04-26T13:54:05;12.50;49.80
39045;DHT22;52192;52.002;5.956;2023-04-26T13:56:31;12.60;49.80
39045;DHT22;52192;52.002;5.956;2023-04-26T13:58:58;12.60;49.80
39045;DHT22;52192;52.002;5.956;2023-04-26T14:01:28;12.70;49.70
39045;DHT22;52192;52.002;5.956;2023-04-26T14:03:54;12.80;49.80
39045;DHT22;52192;52.002;5.956;2023-04-26T14:06:19;12.90;50.00
39045;DHT22;52192;52.002;5.956;2023-04-26T14:08:45;13.00;49.30
39045;DHT22;52192;52.002;5.956;2023-04-26T14:11:11;13.10;49.50
39045;DHT22;52192;52.002;5.956;2023-04-26T14:13:38;13.10;49.60
39045;DHT22;52192;52.002;5.956;2023-04-26T14:16:04;13.20;49.20
39045;DHT22;52192;52.002;5.956;2023-04-26T14:18:30;13.20;48.40
39045;DHT22;52192;52.002;5.956;2023-04-26T14:20:56;13.10;48.20
39045;DHT22;52192;52.002;5.956;2023-04-26T14:23:22;13.10;49.00
39045;DHT22;52192;52.002;5.956;2023-04-26T14:25:54;13.10;48.70
39045;DHT22;52192;52.002;5.956;2023-04-26T14:28:20;13.10;48.80
39045;DHT22;52192;52.002;5.956;2023-04-26T14:30:45;13.10;48.60
39045;DHT22;52192;52.002;5.956;2023-04-26T14:33:11;13.00;48.70
39045;DHT22;52192;52.002;5.956;2023-04-26T14:35:37;12.90;48.50
39045;DHT22;52192;52.002;5.956;2023-04-26T14:38:03;12.80;48.50
39045;DHT22;52192;52.002;5.956;2023-04-26T14:40:29;12.90;48.50
39045;DHT22;52192;52.002;5.956;2023-04-26T14:42:55;12.80;48.50
39045;DHT22;52192;52.002;5.956;2023-04-26T14:45:21;12.80;48.40
39045;DHT22;52192;52.002;5.956;2023-04-26T14:47:47;12.80;48.30
39045;DHT22;52192;52.002;5.956;2023-04-26T14:50:12;12.70;48.20
39045;DHT22;52192;52.002;5.956;2023-04-26T14:52:39;12.70;48.20
39045;DHT22;52192;52.002;5.956;2023-04-26T14:55:05;12.70;48.00
39045;DHT22;52192;52.002;5.956;2023-04-26T14:57:31;12.60;47.90
39045;DHT22;52192;52.002;5.956;2023-04-26T14:59:57;12.50;47.50
39045;DHT22;52192;52.002;5.956;2023-04-26T15:02:31;12.40;47.70
39045;DHT22;52192;52.002;5.956;2023-04-26T15:04:57;12.40;47.90
39045;DHT22;52192;52.002;5.956;2023-04-26T15:07:22;12.30;47.20
39045;DHT22;52192;52.002;5.956;2023-04-26T15:09:48;12.20;46.80
39045;DHT22;52192;52.002;5.956;2023-04-26T15:12:14;12.20;47.30
39045;DHT22;52192;52.002;5.956;2023-04-26T15:14:39;12.20;47.30
39045;DHT22;52192;52.002;5.956;2023-04-26T15:17:05;12.30;47.50
39045;DHT22;52192;52.002;5.956;2023-04-26T15:19:31;12.50;47.40
39045;DHT22;52192;52.002;5.956;2023-04-26T15:21:57;12.50;47.10
39045;DHT22;52192;52.002;5.956;2023-04-26T15:24:22;12.60;47.10
39045;DHT22;52192;52.002;5.956;2023-04-26T15:26:48;12.60;47.00
39045;DHT22;52192;52.002;5.956;2023-04-26T15:29:14;12.70;47.20
39045;DHT22;52192;52.002;5.956;2023-04-26T15:31:39;12.80;47.40
39045;DHT22;52192;52.002;5.956;2023-04-26T15:34:05;12.90;47.40
39045;DHT22;52192;52.002;5.956;2023-04-26T15:36:31;12.90;47.20
39045;DHT22;52192;52.002;5.956;2023-04-26T15:38:57;13.00;47.30
39045;DHT22;52192;52.002;5.956;2023-04-26T15:41:22;13.10;47.20
39045;DHT22;52192;52.002;5.956;2023-04-26T15:43:52;13.20;47.20
39045;DHT22;52192;52.002;5.956;2023-04-26T15:46:20;13.20;46.70
39045;DHT22;52192;52.002;5.956;2023-04-26T15:48:46;13.10;46.70
39045;DHT22;52192;52.002;5.956;2023-04-26T15:51:12;13.10;47.10
39045;DHT22;52192;52.002;5.956;2023-04-26T15:53:38;13.10;47.50
39045;DHT22;52192;52.002;5.956;2023-04-26T15:56:13;13.20;47.80
39045;DHT22;52192;52.002;5.956;2023-04-26T15:58:41;13.20;47.80